sensor_id;sensor_type;location;lat;lon;timestamp;pressure;altitude;pressure_sealevel;temperature;humidity
48404;BME280;34202;52.536;6.042;2023-12-28T00:04:21;100727.34;;;8.53;100.00
48404;BME280;34202;52.536;6.042;2023-12-28T00:09:21;100744.70;;;8.54;100.00
48404;BME280;34202;52.536;6.042;2023-12-28T00:14:21;100750.73;;;8.51;100.00
48404;BME280;34202;52.536;6.042;2023-12-28T00:19:22;100761.83;;;8.50;100.00
48404;BME280;34202;52.536;6.042;2023-12-28T00:24:22;100756.08;;;8.49;100.00
48404;BME280;34202;52.536;6.042;2023-12-28T00:29:22;100759.57;;;8.49;100.00
48404;BME280;34202;52.536;6.042;2023-12-28T00:34:23;100763.74;;;8.51;100.00
48404;BME280;34202;52.536;6.042;2023-12-28T00:39:23;100757.70;;;8.53;100.00
48404;BME280;34202;52.536;6.042;2023-12-28T00:44:23;100759.13;;;8.56;100.00
48404;BME280;34202;52.536;6.042;2023-12-28T00:49:23;100764.88;;;8.58;100.00
48404;BME280;34202;52.536;6.042;2023-12-28T00:54:24;100779.30;;;8.60;100.00
48404;BME280;34202;52.536;6.042;2023-12-28T00:59:24;100774.31;;;8.63;100.00
48404;BME280;34202;52.536;6.042;2023-12-28T01:04:25;100763.77;;;8.66;100.00
48404;BME280;34202;52.536;6.042;2023-12-28T01:09:25;100763.65;;;8.70;100.00
48404;BME280;34202;52.536;6.042;2023-12-28T01:14:25;100763.50;;;8.72;100.00
48404;BME280;34202;52.536;6.042;2023-12-28T01:19:26;100767.70;;;8.75;100.00
48404;BME280;34202;52.536;6.042;2023-12-28T01:24:26;100772.59;;;8.77;100.00
48404;BME280;34202;52.536;6.042;2023-12-28T01:29:26;100775.55;;;8.78;100.00
48404;BME280;34202;52.536;6.042;2023-12-28T01:34:27;100779.23;;;8.81;100.00
48404;BME280;34202;52.536;6.042;2023-12-28T01:39:27;100784.30;;;8.83;100.00
48404;BME280;34202;52.536;6.042;2023-12-28T01:44:27;100789.88;;;8.86;100.00
48404;BME280;34202;52.536;6.042;2023-12-28T01:49:28;100799.28;;;8.88;100.00
48404;BME280;34202;52.536;6.042;2023-12-28T01:54:28;100793.02;;;8.88;100.00
48404;BME280;34202;52.536;6.042;2023-12-28T01:59:30;100795.13;;;8.89;100.00
48404;BME280;34202;52.536;6.042;2023-12-28T02:04:31;100786.83;;;8.91;100.00
48404;BME280;34202;52.536;6.042;2023-12-28T02:09:31;100779.72;;;8.92;100.00
48404;BME280;34202;52.536;6.042;2023-12-28T02:14:31;100779.75;;;8.94;100.00
48404;BME280;34202;52.536;6.042;2023-12-28T02:19:45;100784.98;;;8.95;100.00
48404;BME280;34202;52.536;6.042;2023-12-28T02:29:55;100797.51;;;8.99;100.00
48404;BME280;34202;52.536;6.042;2023-12-28T02:35:01;100803.95;;;9.01;100.00
48404;BME280;34202;52.536;6.042;2023-12-28T02:40:06;100804.35;;;9.05;100.00
48404;BME280;34202;52.536;6.042;2023-12-28T02:45:06;100800.23;;;9.08;100.00
48404;BME280;34202;52.536;6.042;2023-12-28T02:50:07;100790.89;;;9.11;100.00
48404;BME280;34202;52.536;6.042;2023-12-28T02:55:07;100780.67;;;9.14;100.00
48404;BME280;34202;52.536;6.042;2023-12-28T03:00:08;100785.41;;;9.19;100.00
48404;BME280;34202;52.536;6.042;2023-12-28T03:05:09;100782.15;;;9.21;100.00
48404;BME280;34202;52.536;6.042;2023-12-28T03:10:10;100786.00;;;9.24;100.00
48404;BME280;34202;52.536;6.042;2023-12-28T03:15:13;100779.95;;;9.27;100.00
48404;BME280;34202;52.536;6.042;2023-12-28T03:20:15;100773.72;;;9.28;100.00
48404;BME280;34202;52.536;6.042;2023-12-28T03:25:15;100768.52;;;9.30;100.00
48404;BME280;34202;52.536;6.042;2023-12-28T03:30:15;100765.56;;;9.28;100.00
48404;BME280;34202;52.536;6.042;2023-12-28T03:35:16;100773.73;;;9.27;100.00
48404;BME280;34202;52.536;6.042;2023-12-28T03:40:16;100768.16;;;9.28;100.00
48404;BME280;34202;52.536;6.042;2023-12-28T03:45:16;100773.92;;;9.32;100.00
48404;BME280;34202;52.536;6.042;2023-12-28T03:50:17;100775.50;;;9.33;100.00
48404;BME280;34202;52.536;6.042;2023-12-28T03:55:17;100755.55;;;9.34;100.00
48404;BME280;34202;52.536;6.042;2023-12-28T04:00:17;100751.41;;;9.37;100.00
48404;BME280;34202;52.536;6.042;2023-12-28T04:05:18;100753.38;;;9.43;100.00
48404;BME280;34202;52.536;6.042;2023-12-28T04:10:28;100753.23;;;9.47;100.00
48404;BME280;34202;52.536;6.042;2023-12-28T04:15:30;100754.66;;;9.48;100.00
48404;BME280;34202;52.536;6.042;2023-12-28T04:20:31;100750.65;;;9.48;100.00
48404;BME280;34202;52.536;6.042;2023-12-28T04:25:31;100754.14;;;9.49;100.00
48404;BME280;34202;52.536;6.042;2023-12-28T04:30:32;100747.03;;;9.52;100.00
48404;BME280;34202;52.536;6.042;2023-12-28T04:35:32;100733.17;;;9.57;100.00
48404;BME280;34202;52.536;6.042;2023-12-28T04:40:33;100740.12;;;9.56;100.00
48404;BME280;34202;52.536;6.042;2023-12-28T04:45:33;100756.29;;;9.57;100.00
48404;BME280;34202;52.536;6.042;2023-12-28T04:50:34;100747.09;;;9.58;100.00
48404;BME280;34202;52.536;6.042;2023-12-28T04:55:34;100728.33;;;9.58;100.00
48404;BME280;34202;52.536;6.042;2023-12-28T05:00:34;100735.81;;;9.60;100.00
48404;BME280;34202;52.536;6.042;2023-12-28T05:05:35;100737.23;;;9.63;100.00
48404;BME280;34202;52.536;6.042;2023-12-28T05:10:35;100740.71;;;9.64;100.00
48404;BME280;34202;52.536;6.042;2023-12-28T05:15:35;100734.98;;;9.63;100.00
48404;BME280;34202;52.536;6.042;2023-12-28T05:20:36;100748.73;;;9.66;100.00
48404;BME280;34202;52.536;6.042;2023-12-28T05:25:36;100743.86;;;9.66;100.00
48404;BME280;34202;52.536;6.042;2023-12-28T05:30:36;100753.61;;;9.67;100.00
48404;BME280;34202;52.536;6.042;2023-12-28T05:35:37;100756.58;;;9.68;100.00
48404;BME280;34202;52.536;6.042;2023-12-28T05:40:38;100765.45;;;9.70;100.00
48404;BME280;34202;52.536;6.042;2023-12-28T05:45:38;100764.77;;;9.72;100.00
48404;BME280;34202;52.536;6.042;2023-12-28T05:50:38;100765.99;;;9.73;100.00
48404;BME280;34202;52.536;6.042;2023-12-28T05:55:43;100769.29;;;9.73;100.00
48404;BME280;34202;52.536;6.042;2023-12-28T06:00:43;100769.48;;;9.74;100.00
48404;BME280;34202;52.536;6.042;2023-12-28T06:05:46;100764.80;;;9.75;100.00
48404;BME280;34202;52.536;6.042;2023-12-28T06:10:46;100763.06;;;9.75;100.00
48404;BME280;34202;52.536;6.042;2023-12-28T06:15:46;100757.17;;;9.77;100.00
48404;BME280;34202;52.536;6.042;2023-12-28T06:20:47;100758.42;;;9.81;100.00
48404;BME280;34202;52.536;6.042;2023-12-28T06:25:47;100750.28;;;9.85;100.00
48404;BME280;34202;52.536;6.042;2023-12-28T06:30:48;100746.66;;;9.89;100.00
48404;BME280;34202;52.536;6.042;2023-12-28T06:35:48;100766.36;;;9.94;100.00
48404;BME280;34202;52.536;6.042;2023-12-28T06:40:48;100758.69;;;9.92;100.00
48404;BME280;34202;52.536;6.042;2023-12-28T06:45:49;100765.42;;;9.89;100.00
48404;BME280;34202;52.536;6.042;2023-12-28T06:50:49;100773.59;;;9.86;100.00
48404;BME280;34202;52.536;6.042;2023-12-28T06:55:50;100783.33;;;9.86;100.00
48404;BME280;34202;52.536;6.042;2023-12-28T07:00:50;100791.67;;;9.86;100.00
48404;BME280;34202;52.536;6.042;2023-12-28T07:05:51;100798.63;;;9.87;100.00
48404;BME280;34202;52.536;6.042;2023-12-28T07:10:51;100794.64;;;9.88;100.00
48404;BME280;34202;52.536;6.042;2023-12-28T07:15:52;100805.45;;;9.92;100.00
48404;BME280;34202;52.536;6.042;2023-12-28T07:20:53;100806.32;;;9.94;100.00
48404;BME280;34202;52.536;6.042;2023-12-28T07:25:54;100817.98;;;9.94;100.00
48404;BME280;34202;52.536;6.042;2023-12-28T07:30:54;100828.41;;;9.94;100.00
48404;BME280;34202;52.536;6.042;2023-12-28T07:35:55;100831.91;;;9.96;100.00
48404;BME280;34202;52.536;6.042;2023-12-28T07:40:55;100840.96;;;9.97;100.00
48404;BME280;34202;52.536;6.042;2023-12-28T07:45:55;100836.78;;;9.96;100.00
48404;BME280;34202;52.536;6.042;2023-12-28T07:51:04;100846.16;;;9.94;100.00
48404;BME280;34202;52.536;6.042;2023-12-28T07:56:05;100871.52;;;9.93;100.00
48404;BME280;34202;52.536;6.042;2023-12-28T08:01:12;100884.38;;;9.93;100.00
48404;BME280;34202;52.536;6.042;2023-12-28T08:06:13;100882.83;;;9.94;100.00
48404;BME280;34202;52.536;6.042;2023-12-28T08:11:13;100883.34;;;9.93;100.00
48404;BME280;34202;52.536;6.042;2023-12-28T08:16:13;100887.66;;;9.92;100.00
48404;BME280;34202;52.536;6.042;2023-12-28T08:21:14;100889.41;;;9.91;100.00
48404;BME280;34202;52.536;6.042;2023-12-28T08:26:14;100892.52;;;9.91;100.00
48404;BME280;34202;52.536;6.042;2023-12-28T08:31:14;100882.83;;;9.93;100.00
48404;BME280;34202;52.536;6.042;2023-12-28T08:36:15;100887.19;;;9.96;100.00
48404;BME280;34202;52.536;6.042;2023-12-28T08:41:21;100886.87;;;9.98;100.00
48404;BME280;34202;52.536;6.042;2023-12-28T08:46:22;100892.97;;;10.00;100.00
48404;BME280;34202;52.536;6.042;2023-12-28T08:51:22;100900.30;;;10.02;100.00
48404;BME280;34202;52.536;6.042;2023-12-28T08:56:23;100893.35;;;10.03;100.00
48404;BME280;34202;52.536;6.042;2023-12-28T09:01:23;100886.10;;;10.07;100.00
48404;BME280;34202;52.536;6.042;2023-12-28T09:06:27;100888.03;;;10.10;100.00
48404;BME280;34202;52.536;6.042;2023-12-28T09:11:27;100892.23;;;10.13;100.00
48404;BME280;34202;52.536;6.042;2023-12-28T09:16:28;100895.73;;;10.15;100.00
48404;BME280;34202;52.536;6.042;2023-12-28T09:21:29;100906.88;;;10.17;100.00
48404;BME280;34202;52.536;6.042;2023-12-28T09:26:29;100906.55;;;10.19;100.00
48404;BME280;34202;52.536;6.042;2023-12-28T09:31:30;100906.39;;;10.22;100.00
48404;BME280;34202;52.536;6.042;2023-12-28T09:36:31;100913.05;;;10.27;100.00
48404;BME280;34202;52.536;6.042;2023-12-28T09:41:36;100916.73;;;10.29;100.00
48404;BME280;34202;52.536;6.042;2023-12-28T09:46:42;100929.33;;;10.32;100.00
48404;BME280;34202;52.536;6.042;2023-12-28T09:51:43;100925.86;;;10.35;100.00
48404;BME280;34202;52.536;6.042;2023-12-28T09:56:44;100943.09;;;10.36;100.00
48404;BME280;34202;52.536;6.042;2023-12-28T10:01:46;100946.26;;;10.40;100.00
48404;BME280;34202;52.536;6.042;2023-12-28T10:06:47;100947.32;;;10.41;100.00
48404;BME280;34202;52.536;6.042;2023-12-28T10:11:48;100944.89;;;10.43;100.00
48404;BME280;34202;52.536;6.042;2023-12-28T10:16:49;100942.14;;;10.47;100.00
48404;BME280;34202;52.536;6.042;2023-12-28T10:21:49;100946.70;;;10.50;100.00
48404;BME280;34202;52.536;6.042;2023-12-28T10:26:49;100946.89;;;10.52;100.00
48404;BME280;34202;52.536;6.042;2023-12-28T10:31:50;100948.46;;;10.53;100.00
48404;BME280;34202;52.536;6.042;2023-12-28T10:36:51;100947.42;;;10.54;100.00
48404;BME280;34202;52.536;6.042;2023-12-28T10:41:55;100950.92;;;10.56;100.00
48404;BME280;34202;52.536;6.042;2023-12-28T10:46:57;100958.96;;;10.59;100.00
48404;BME280;34202;52.536;6.042;2023-12-28T10:52:01;100959.16;;;10.63;100.00
48404;BME280;34202;52.536;6.042;2023-12-28T10:57:11;100964.23;;;10.65;100.00
48404;BME280;34202;52.536;6.042;2023-12-28T11:02:18;100964.06;;;10.66;100.00
48404;BME280;34202;52.536;6.042;2023-12-28T11:07:22;100964.23;;;10.66;100.00
48404;BME280;34202;52.536;6.042;2023-12-28T11:12:24;100960.06;;;10.66;100.00
48404;BME280;34202;52.536;6.042;2023-12-28T11:17:26;100959.17;;;10.67;100.00
48404;BME280;34202;52.536;6.042;2023-12-28T11:22:28;100953.80;;;10.68;100.00
48404;BME280;34202;52.536;6.042;2023-12-28T11:27:35;100943.02;;;10.70;100.00
48404;BME280;34202;52.536;6.042;2023-12-28T11:32:36;100942.00;;;10.71;100.00
48404;BME280;34202;52.536;6.042;2023-12-28T11:37:38;100940.45;;;10.72;100.00
48404;BME280;34202;52.536;6.042;2023-12-28T11:42:50;100936.80;;;10.73;100.00
48404;BME280;34202;52.536;6.042;2023-12-28T11:48:01;100939.92;;;10.74;100.00
48404;BME280;34202;52.536;6.042;2023-12-28T11:53:02;100935.07;;;10.76;100.00
48404;BME280;34202;52.536;6.042;2023-12-28T11:58:02;100937.52;;;10.77;100.00
48404;BME280;34202;52.536;6.042;2023-12-28T12:03:03;100936.85;;;10.80;100.00
48404;BME280;34202;52.536;6.042;2023-12-28T12:08:05;100941.20;;;10.82;100.00
48404;BME280;34202;52.536;6.042;2023-12-28T12:13:05;100939.66;;;10.84;100.00
48404;BME280;34202;52.536;6.042;2023-12-28T12:18:06;100942.29;;;10.87;100.00
48404;BME280;34202;52.536;6.042;2023-12-28T12:23:06;100940.71;;;10.88;100.00
48404;BME280;34202;52.536;6.042;2023-12-28T12:28:07;100934.10;;;10.88;100.00
48404;BME280;34202;52.536;6.042;2023-12-28T12:33:10;100922.45;;;10.88;100.00
48404;BME280;34202;52.536;6.042;2023-12-28T12:38:10;100920.87;;;10.88;100.00
48404;BME280;34202;52.536;6.042;2023-12-28T12:43:11;100929.06;;;10.88;100.00
48404;BME280;34202;52.536;6.042;2023-12-28T12:48:11;100926.11;;;10.89;100.00
48404;BME280;34202;52.536;6.042;2023-12-28T12:53:12;100914.10;;;10.90;100.00
48404;BME280;34202;52.536;6.042;2023-12-28T12:58:13;100912.88;;;10.90;100.00
48404;BME280;34202;52.536;6.042;2023-12-28T13:03:13;100899.98;;;10.88;100.00
48404;BME280;34202;52.536;6.042;2023-12-28T13:08:14;100913.92;;;10.88;100.00
48404;BME280;34202;52.536;6.042;2023-12-28T13:13:14;100916.35;;;10.88;100.00
48404;BME280;34202;52.536;6.042;2023-12-28T13:18:14;100905.02;;;10.87;100.00
48404;BME280;34202;52.536;6.042;2023-12-28T13:23:15;100899.46;;;10.87;100.00
48404;BME280;34202;52.536;6.042;2023-12-28T13:28:16;100901.20;;;10.89;100.00
48404;BME280;34202;52.536;6.042;2023-12-28T13:33:16;100903.98;;;10.89;100.00
48404;BME280;34202;52.536;6.042;2023-12-28T13:38:17;100908.34;;;10.88;100.00
48404;BME280;34202;52.536;6.042;2023-12-28T13:43:17;100914.41;;;10.86;100.00
48404;BME280;34202;52.536;6.042;2023-12-28T13:48:18;100918.59;;;10.85;100.00
48404;BME280;34202;52.536;6.042;2023-12-28T13:53:18;100909.20;;;10.84;100.00
48404;BME280;34202;52.536;6.042;2023-12-28T13:58:18;100908.31;;;10.83;100.00
48404;BME280;34202;52.536;6.042;2023-12-28T14:03:19;100912.65;;;10.81;100.00
48404;BME280;34202;52.536;6.042;2023-12-28T14:08:19;100902.19;;;10.79;100.00
48404;BME280;34202;52.536;6.042;2023-12-28T14:13:20;100900.44;;;10.77;100.00
48404;BME280;34202;52.536;6.042;2023-12-28T14:18:21;100901.30;;;10.76;100.00
48404;BME280;34202;52.536;6.042;2023-12-28T14:23:21;100904.62;;;10.76;100.00
48404;BME280;34202;52.536;6.042;2023-12-28T14:28:22;100902.33;;;10.74;100.00
48404;BME280;34202;52.536;6.042;2023-12-28T14:33:24;100894.48;;;10.73;100.00
48404;BME280;34202;52.536;6.042;2023-12-28T14:38:25;100901.77;;;10.70;100.00
48404;BME280;34202;52.536;6.042;2023-12-28T14:43:25;100909.23;;;10.66;100.00
48404;BME280;34202;52.536;6.042;2023-12-28T14:48:25;100914.08;;;10.63;100.00
48404;BME280;34202;52.536;6.042;2023-12-28T14:53:26;100906.23;;;10.60;100.00
48404;BME280;34202;52.536;6.042;2023-12-28T14:58:26;100902.02;;;10.56;100.00
48404;BME280;34202;52.536;6.042;2023-12-28T15:03:27;100904.41;;;10.50;100.00
48404;BME280;34202;52.536;6.042;2023-12-28T15:08:27;100899.13;;;10.43;100.00
48404;BME280;34202;52.536;6.042;2023-12-28T15:13:27;100904.48;;;10.39;100.00
48404;BME280;34202;52.536;6.042;2023-12-28T15:18:28;100906.38;;;10.37;100.00
48404;BME280;34202;52.536;6.042;2023-12-28T15:23:29;100905.86;;;10.35;100.00
48404;BME280;34202;52.536;6.042;2023-12-28T15:28:29;100905.84;;;10.34;100.00
48404;BME280;34202;52.536;6.042;2023-12-28T15:33:30;100908.94;;;10.31;100.00
48404;BME280;34202;52.536;6.042;2023-12-28T15:38:30;100904.56;;;10.30;100.00
48404;BME280;34202;52.536;6.042;2023-12-28T15:43:30;100900.02;;;10.29;100.00
48404;BME280;34202;52.536;6.042;2023-12-28T15:48:31;100888.52;;;10.27;100.00
48404;BME280;34202;52.536;6.042;2023-12-28T15:53:31;100889.88;;;10.23;100.00
48404;BME280;34202;52.536;6.042;2023-12-28T15:58:32;100885.30;;;10.18;100.00
48404;BME280;34202;52.536;6.042;2023-12-28T16:03:32;100869.63;;;10.12;100.00
48404;BME280;34202;52.536;6.042;2023-12-28T16:08:32;100866.60;;;10.07;100.00
48404;BME280;34202;52.536;6.042;2023-12-28T16:13:33;100863.11;;;10.04;100.00
48404;BME280;34202;52.536;6.042;2023-12-28T16:18:34;100856.99;;;10.01;100.00
48404;BME280;34202;52.536;6.042;2023-12-28T16:23:35;100849.34;;;10.00;100.00
48404;BME280;34202;52.536;6.042;2023-12-28T16:28:35;100841.16;;;10.00;100.00
48404;BME280;34202;52.536;6.042;2023-12-28T16:33:36;100839.98;;;10.02;100.00
48404;BME280;34202;52.536;6.042;2023-12-28T16:38:36;100829.02;;;10.04;100.00
48404;BME280;34202;52.536;6.042;2023-12-28T16:43:37;100841.56;;;10.05;100.00
48404;BME280;34202;52.536;6.042;2023-12-28T16:48:39;100838.09;;;10.06;100.00
48404;BME280;34202;52.536;6.042;2023-12-28T16:53:39;100828.19;;;10.08;100.00
48404;BME280;34202;52.536;6.042;2023-12-28T16:58:40;100826.14;;;10.12;100.00
48404;BME280;34202;52.536;6.042;2023-12-28T17:03:40;100826.35;;;10.16;100.00
48404;BME280;34202;52.536;6.042;2023-12-28T17:08:41;100822.36;;;10.18;100.00
48404;BME280;34202;52.536;6.042;2023-12-28T17:13:41;100818.39;;;10.22;100.00
48404;BME280;34202;52.536;6.042;2023-12-28T17:18:42;100803.43;;;10.22;100.00
48404;BME280;34202;52.536;6.042;2023-12-28T17:23:47;100812.15;;;10.24;100.00
48404;BME280;34202;52.536;6.042;2023-12-28T17:29:04;100809.18;;;10.25;100.00
48404;BME280;34202;52.536;6.042;2023-12-28T17:34:07;100808.84;;;10.24;100.00
48404;BME280;34202;52.536;6.042;2023-12-28T17:39:07;100807.44;;;10.24;100.00
48404;BME280;34202;52.536;6.042;2023-12-28T17:44:13;100799.63;;;10.24;100.00
48404;BME280;34202;52.536;6.042;2023-12-28T17:49:27;100790.25;;;10.26;100.00
48404;BME280;34202;52.536;6.042;2023-12-28T17:54:27;100789.02;;;10.28;100.00
48404;BME280;34202;52.536;6.042;2023-12-28T17:59:28;100780.33;;;10.27;100.00
48404;BME280;34202;52.536;6.042;2023-12-28T18:04:28;100771.30;;;10.28;100.00
48404;BME280;34202;52.536;6.042;2023-12-28T18:09:32;100774.61;;;10.29;100.00
48404;BME280;34202;52.536;6.042;2023-12-28T18:14:33;100777.22;;;10.30;100.00
48404;BME280;34202;52.536;6.042;2023-12-28T18:19:34;100770.27;;;10.29;100.00
48404;BME280;34202;52.536;6.042;2023-12-28T18:24:34;100760.67;;;10.28;100.00
48404;BME280;34202;52.536;6.042;2023-12-28T18:29:34;100764.85;;;10.27;100.00
48404;BME280;34202;52.536;6.042;2023-12-28T18:34:35;100752.50;;;10.26;100.00
48404;BME280;34202;52.536;6.042;2023-12-28T18:39:35;100762.77;;;10.26;100.00
48404;BME280;34202;52.536;6.042;2023-12-28T18:44:37;100759.11;;;10.27;100.00
48404;BME280;34202;52.536;6.042;2023-12-28T18:49:37;100757.04;;;10.29;100.00
48404;BME280;34202;52.536;6.042;2023-12-28T18:54:38;100765.39;;;10.29;100.00
48404;BME280;34202;52.536;6.042;2023-12-28T18:59:38;100760.20;;;10.30;100.00
48404;BME280;34202;52.536;6.042;2023-12-28T19:04:38;100762.63;;;10.31;100.00
48404;BME280;34202;52.536;6.042;2023-12-28T19:09:39;100763.70;;;10.31;100.00
48404;BME280;34202;52.536;6.042;2023-12-28T19:14:39;100767.70;;;10.32;100.00
48404;BME280;34202;52.536;6.042;2023-12-28T19:19:39;100773.77;;;10.31;100.00
48404;BME280;34202;52.536;6.042;2023-12-28T19:24:40;100757.73;;;10.30;100.00
48404;BME280;34202;52.536;6.042;2023-12-28T19:29:40;100756.87;;;10.29;100.00
48404;BME280;34202;52.536;6.042;2023-12-28T19:34:41;100745.20;;;10.28;100.00
48404;BME280;34202;52.536;6.042;2023-12-28T19:39:41;100746.95;;;10.28;100.00
48404;BME280;34202;52.536;6.042;2023-12-28T19:44:45;100741.73;;;10.28;100.00
48404;BME280;34202;52.536;6.042;2023-12-28T19:49:45;100735.14;;;10.30;100.00
48404;BME280;34202;52.536;6.042;2023-12-28T19:54:46;100732.75;;;10.31;100.00
48404;BME280;34202;52.536;6.042;2023-12-28T19:59:46;100729.63;;;10.33;100.00
48404;BME280;34202;52.536;6.042;2023-12-28T20:04:47;100721.63;;;10.33;100.00
48404;BME280;34202;52.536;6.042;2023-12-28T20:09:47;100708.93;;;10.34;100.00
48404;BME280;34202;52.536;6.042;2023-12-28T20:14:48;100695.17;;;10.34;100.00
48404;BME280;34202;52.536;6.042;2023-12-28T20:19:48;100694.84;;;10.33;100.00
48404;BME280;34202;52.536;6.042;2023-12-28T20:24:49;100679.35;;;10.33;100.00
48404;BME280;34202;52.536;6.042;2023-12-28T20:29:49;100674.83;;;10.33;100.00
48404;BME280;34202;52.536;6.042;2023-12-28T20:34:49;100679.17;;;10.34;100.00
48404;BME280;34202;52.536;6.042;2023-12-28T20:39:50;100671.70;;;10.35;100.00
48404;BME280;34202;52.536;6.042;2023-12-28T20:44:50;100669.09;;;10.35;100.00
48404;BME280;34202;52.536;6.042;2023-12-28T20:49:51;100671.19;;;10.37;100.00
48404;BME280;34202;52.536;6.042;2023-12-28T20:54:51;100667.02;;;10.39;100.00
48404;BME280;34202;52.536;6.042;2023-12-28T20:59:52;100667.38;;;10.40;100.00
48404;BME280;34202;52.536;6.042;2023-12-28T21:04:52;100664.92;;;10.40;100.00
48404;BME280;34202;52.536;6.042;2023-12-28T21:09:53;100654.50;;;10.40;100.00
48404;BME280;34202;52.536;6.042;2023-12-28T21:14:53;100655.20;;;10.41;100.00
48404;BME280;34202;52.536;6.042;2023-12-28T21:19:53;100641.81;;;10.41;100.00
48404;BME280;34202;52.536;6.042;2023-12-28T21:24:54;100641.11;;;10.43;100.00
48404;BME280;34202;52.536;6.042;2023-12-28T21:29:54;100633.80;;;10.43;100.00
48404;BME280;34202;52.536;6.042;2023-12-28T21:34:55;100621.27;;;10.40;100.00
48404;BME280;34202;52.536;6.042;2023-12-28T21:39:55;100622.65;;;10.38;100.00
48404;BME280;34202;52.536;6.042;2023-12-28T21:44:55;100634.83;;;10.37;100.00
48404;BME280;34202;52.536;6.042;2023-12-28T21:49:56;100634.30;;;10.35;100.00
48404;BME280;34202;52.536;6.042;2023-12-28T21:54:56;100625.42;;;10.34;100.00
48404;BME280;34202;52.536;6.042;2023-12-28T21:59:56;100629.77;;;10.33;100.00
48404;BME280;34202;52.536;6.042;2023-12-28T22:04:57;100628.55;;;10.33;100.00
48404;BME280;34202;52.536;6.042;2023-12-28T22:09:57;100621.73;;;10.30;100.00
48404;BME280;34202;52.536;6.042;2023-12-28T22:14:58;100628.67;;;10.28;100.00
48404;BME280;34202;52.536;6.042;2023-12-28T22:19:59;100630.57;;;10.24;100.00
48404;BME280;34202;52.536;6.042;2023-12-28T22:24:59;100635.59;;;10.21;100.00
48404;BME280;34202;52.536;6.042;2023-12-28T22:29:59;100633.66;;;10.18;100.00
48404;BME280;34202;52.536;6.042;2023-12-28T22:35:00;100635.05;;;10.15;100.00
48404;BME280;34202;52.536;6.042;2023-12-28T22:40:00;100629.99;;;10.12;100.00
48404;BME280;34202;52.536;6.042;2023-12-28T22:45:02;100624.07;;;10.10;100.00
48404;BME280;34202;52.536;6.042;2023-12-28T22:50:02;100629.99;;;10.12;100.00
48404;BME280;34202;52.536;6.042;2023-12-28T22:55:03;100628.96;;;10.15;100.00
48404;BME280;34202;52.536;6.042;2023-12-28T23:00:05;100621.83;;;10.18;100.00
48404;BME280;34202;52.536;6.042;2023-12-28T23:05:10;100638.89;;;10.21;100.00
48404;BME280;34202;52.536;6.042;2023-12-28T23:10:13;100645.67;;;10.20;100.00
48404;BME280;34202;52.536;6.042;2023-12-28T23:15:13;100638.86;;;10.15;100.00
48404;BME280;34202;52.536;6.042;2023-12-28T23:20:14;100631.00;;;10.07;100.00
48404;BME280;34202;52.536;6.042;2023-12-28T23:25:15;100636.54;;;10.02;100.00
48404;BME280;34202;52.536;6.042;2023-12-28T23:30:19;100630.40;;;9.96;100.00
48404;BME280;34202;52.536;6.042;2023-12-28T23:35:19;100627.61;;;9.92;100.00
48404;BME280;34202;52.536;6.042;2023-12-28T23:40:19;100627.08;;;9.90;100.00
48404;BME280;34202;52.536;6.042;2023-12-28T23:45:20;100632.43;;;9.85;100.00
48404;BME280;34202;52.536;6.042;2023-12-28T23:50:21;100625.80;;;9.80;100.00
48404;BME280;34202;52.536;6.042;2023-12-28T23:55:21;100627.49;;;9.74;100.00
